Hlavní strana
METAR-TAF:

METAR-TAF

Letiště :

Rio de Janeiro, Rio de Janeiro, Brazílie

zeměpisná šířka: 22-54S, zeměpisná délka: 043-10W, výška: 3 m

Aktuální stav počasí

Zpráva byla vytvořena před 1 hodinou a 58 minutami, v 02:00 UTC
Bezvětří
Teplota 24°C
Vlhkost vzduchu 89%
Tlak 1011 hPa
Viditelnost 10 km a více
Žádná oblačnost pod 1500 m, nevyskytují se cumulonimby.

METAR: SBRJ 070200Z 00000KT CAVOK 24/22 Q1011

Čas: 00:58 (03:58 UTC)

Předpověď počasí

Zpráva byla vytvořena před 6 hodinami a 58 minutami, v 21:00 UTC
Předpověď platná od 07 v 00 UTC do 07 v 12 UTC
Jižní vítr 11 kt
Viditelnost 10 km a více
Polojasno ve výšce 2000 ft
Změna
od 07 v 02 UTC do 07 v 04 UTC
Severoseverovýchodní vítr 5 kt

TAF: SBRJ 062100Z 0700/0712 17011KT 9999 SCT020 TX25/0700Z TN22/0708Z BECMG 0702/0704 03005KT RMK PEI

Stav a předpovědi počasí z více než 4 000 letišť (zprávy METAR a TAF).

Červené a žluté tečky na mapě představují dostupné meteorologické stanice.

Když kurzor umístíte na tečku, zobrazí se název stanice.

Pak kliknutím zobrazíte stav a předpověď počasí.

Chcete-li změnit mapu, kliknutím na zelené tlačítko se znaménkem +mapu přiblížíte, kliknutím na zelené tlačítko se znaménkem – mapu oddálíte a kliknutím na zelené šipky přejdete na sousední mapy.


METAR-TAF: